Wolf 59 — CGBP — position and weather

sailwx.info

Track history (hours):
 
Tides and Currents Weather Stations Pressure Air Temp Water Temp Dewpoint Dewpoint Depression Visibility Wind Speed Wind Dir Waves Ship Positions

Wolf 59

Last reported at 2014-Dec-18 16:14 UTC. Time now 2014-Dec-18 22:26 UTC.
Position N 48°26' W 123°26'.

Length 33 m; draft 2.6 m.

Type: Military. MMSI: 316011515.

Date/timePositionNaut miles runAvg speedWind from/ knotsBaromVisibWave heightAir tempDewpointWater temp
2014-Dec-18 16:14N 48°26' W 123°26'0 0.0
2014-Dec-18 15:32N 48°26' W 123°26'0 0.0
2014-Dec-18 14:26N 48°26' W 123°26'0 0.0
2014-Dec-18 13:32N 48°26' W 123°26'0 0.0
2014-Dec-18 12:32N 48°26' W 123°26'0 0.0
2014-Dec-18 11:33N 48°26' W 123°26'0 0.0
2014-Dec-18 10:27N 48°26' W 123°26'0 0.0
2014-Dec-18 09:33N 48°26' W 123°26'0 0.0
2014-Dec-18 08:33N 48°26' W 123°26'0 0.0
2014-Dec-18 07:33N 48°26' W 123°26'0 0.0
2014-Dec-18 06:33N 48°26' W 123°26'0 0.0
2014-Dec-18 05:33N 48°26' W 123°26'0 0.0
2014-Dec-18 04:21N 48°26' W 123°26'0 0.0
2014-Dec-18 03:33N 48°26' W 123°26'0 0.0
2014-Dec-18 02:33N 48°26' W 123°26'0 0.0
2014-Dec-18 01:33N 48°26' W 123°26'0 0.0
2014-Dec-18 00:09N 48°26' W 123°26'0 0.0
2014-Dec-17 23:03N 48°26' W 123°26'0 0.0
2014-Dec-17 22:21N 48°26' W 123°26'0 0.0
2014-Dec-17 21:27N 48°26' W 123°26'0 0.0
2014-Dec-17 17:09N 48°26' W 123°26'0 0.0
2014-Dec-17 16:27N 48°26' W 123°26'0 0.0
2014-Dec-17 15:09N 48°26' W 123°26'0 0.0
2014-Dec-17 14:27N 48°26' W 123°26'0 0.0
2014-Dec-17 13:09N 48°26' W 123°26'0 0.0
2014-Dec-17 12:27N 48°26' W 123°26'0 0.0
2014-Dec-17 10:33N 48°26' W 123°26'0 0.0
2014-Dec-17 09:33N 48°26' W 123°26'0 0.0
2014-Dec-17 08:33N 48°26' W 123°26'0 0.0
2014-Dec-17 07:33N 48°26' W 123°26'0 0.0
2014-Dec-17 06:03N 48°26' W 123°26'0 0.0
2014-Dec-17 05:33N 48°26' W 123°26'0 0.0
2014-Dec-17 04:33N 48°26' W 123°26'0 0.0
2014-Dec-17 03:33N 48°26' W 123°26'0 0.0
2014-Dec-17 02:27N 48°26' W 123°26'0 0.0
2014-Dec-17 00:09N 48°26' W 123°26'0 0.0
2014-Dec-16 23:33N 48°26' W 123°26'0 0.0
2014-Dec-16 22:33N 48°26' W 123°26'0 0.0
2014-Dec-16 20:09N 48°26' W 123°26'0 0.0
2014-Dec-16 19:15N 48°26' W 123°26'0 0.0
2014-Dec-16 17:15N 48°26' W 123°26'0 0.0
2014-Dec-16 13:27N 48°26' W 123°26'0 0.0
2014-Dec-16 12:09N 48°26' W 123°26'0 0.0
2014-Dec-16 11:27N 48°26' W 123°26'0 0.0
2014-Dec-16 10:27N 48°26' W 123°26'0 0.0
2014-Dec-16 09:33N 48°26' W 123°26'0 0.0
2014-Dec-16 08:33N 48°26' W 123°26'0 0.0
2014-Dec-16 07:27N 48°26' W 123°26'0 0.0
2014-Dec-16 06:33N 48°26' W 123°26'0 0.0
2014-Dec-16 05:09N 48°26' W 123°26'0 0.0
2014-Dec-15 21:33N 48°26' W 123°26'0 0.0
2014-Dec-15 17:33N 48°26' W 123°26'0 0.0
2014-Dec-14 21:06N 48°26' W 123°26'2 3.5
2014-Dec-14 20:33N 48°24' W 123°28'7 7.3
2014-Dec-14 19:34N 48°24' W 123°17'1414.2
2014-Dec-14 18:33N 48°38' W 123°16'1312.6
2014-Dec-14 17:33N 48°49' W 123°25'3 2.3
2014-Dec-14 16:22N 48°51' W 123°28'1 0.1
2014-Dec-14 00:30N 48°51' W 123°29'6 5.8
2014-Dec-13 23:30N 48°48' W 123°22'9 9.4
2014-Dec-13 22:33N 48°41' W 123°30'0 0.4
2014-Dec-13 21:33N 48°41' W 123°30'6 6.2
2014-Dec-13 20:33N 48°40' W 123°21'1211.7
2014-Dec-13 19:33N 48°29' W 123°15'7 7.2
2014-Dec-13 18:34N 48°24' W 123°23'3 0.1
2014-Dec-12 19:29N 48°26' W 123°26'  
Track history (hours):
 
Tides and Currents Weather Stations Pressure Air Temp Water Temp Dewpoint Dewpoint Depression Visibility Wind Speed Wind Dir Waves Ship Positions

Wolf 59

Last reported at 2014-Dec-18 16:14 UTC. Time now 2014-Dec-18 22:26 UTC.
Position N 48°26' W 123°26'.

Length 33 m; draft 2.6 m.

Type: Military. MMSI: 316011515.

Date/timePositionNaut miles runAvg speedWind from/ knotsBaromVisibWave heightAir tempDewpointWater temp
2014-Dec-18 16:14N 48°26' W 123°26'0 0.0
2014-Dec-18 15:32N 48°26' W 123°26'0 0.0
2014-Dec-18 14:26N 48°26' W 123°26'0 0.0
2014-Dec-18 13:32N 48°26' W 123°26'0 0.0
2014-Dec-18 12:32N 48°26' W 123°26'0 0.0
2014-Dec-18 11:33N 48°26' W 123°26'0 0.0
2014-Dec-18 10:27N 48°26' W 123°26'0 0.0
2014-Dec-18 09:33N 48°26' W 123°26'0 0.0
2014-Dec-18 08:33N 48°26' W 123°26'0 0.0
2014-Dec-18 07:33N 48°26' W 123°26'0 0.0
2014-Dec-18 06:33N 48°26' W 123°26'0 0.0
2014-Dec-18 05:33N 48°26' W 123°26'0 0.0
2014-Dec-18 04:21N 48°26' W 123°26'0 0.0
2014-Dec-18 03:33N 48°26' W 123°26'0 0.0
2014-Dec-18 02:33N 48°26' W 123°26'0 0.0
2014-Dec-18 01:33N 48°26' W 123°26'0 0.0
2014-Dec-18 00:09N 48°26' W 123°26'0 0.0
2014-Dec-17 23:03N 48°26' W 123°26'0 0.0
2014-Dec-17 22:21N 48°26' W 123°26'0 0.0
2014-Dec-17 21:27N 48°26' W 123°26'0 0.0
2014-Dec-17 17:09N 48°26' W 123°26'0 0.0
2014-Dec-17 16:27N 48°26' W 123°26'0 0.0
2014-Dec-17 15:09N 48°26' W 123°26'0 0.0
2014-Dec-17 14:27N 48°26' W 123°26'0 0.0
2014-Dec-17 13:09N 48°26' W 123°26'0 0.0
2014-Dec-17 12:27N 48°26' W 123°26'0 0.0
2014-Dec-17 10:33N 48°26' W 123°26'0 0.0
2014-Dec-17 09:33N 48°26' W 123°26'0 0.0
2014-Dec-17 08:33N 48°26' W 123°26'0 0.0
2014-Dec-17 07:33N 48°26' W 123°26'0 0.0
2014-Dec-17 06:03N 48°26' W 123°26'0 0.0
2014-Dec-17 05:33N 48°26' W 123°26'0 0.0
2014-Dec-17 04:33N 48°26' W 123°26'0 0.0
2014-Dec-17 03:33N 48°26' W 123°26'0 0.0
2014-Dec-17 02:27N 48°26' W 123°26'0 0.0
2014-Dec-17 00:09N 48°26' W 123°26'0 0.0
2014-Dec-16 23:33N 48°26' W 123°26'0 0.0
2014-Dec-16 22:33N 48°26' W 123°26'0 0.0
2014-Dec-16 20:09N 48°26' W 123°26'0 0.0
2014-Dec-16 19:15N 48°26' W 123°26'0 0.0
2014-Dec-16 17:15N 48°26' W 123°26'0 0.0
2014-Dec-16 13:27N 48°26' W 123°26'0 0.0
2014-Dec-16 12:09N 48°26' W 123°26'0 0.0
2014-Dec-16 11:27N 48°26' W 123°26'0 0.0
2014-Dec-16 10:27N 48°26' W 123°26'0 0.0
2014-Dec-16 09:33N 48°26' W 123°26'0 0.0
2014-Dec-16 08:33N 48°26' W 123°26'0 0.0
2014-Dec-16 07:27N 48°26' W 123°26'0 0.0
2014-Dec-16 06:33N 48°26' W 123°26'0 0.0
2014-Dec-16 05:09N 48°26' W 123°26'0 0.0
2014-Dec-15 21:33N 48°26' W 123°26'0 0.0
2014-Dec-15 17:33N 48°26' W 123°26'0 0.0
2014-Dec-14 21:06N 48°26' W 123°26'2 3.5
2014-Dec-14 20:33N 48°24' W 123°28'7 7.3
2014-Dec-14 19:34N 48°24' W 123°17'1414.2
2014-Dec-14 18:33N 48°38' W 123°16'1312.6
2014-Dec-14 17:33N 48°49' W 123°25'3 2.3
2014-Dec-14 16:22N 48°51' W 123°28'1 0.1
2014-Dec-14 00:30N 48°51' W 123°29'6 5.8
2014-Dec-13 23:30N 48°48' W 123°22'9 9.4
2014-Dec-13 22:33N 48°41' W 123°30'0 0.4
2014-Dec-13 21:33N 48°41' W 123°30'6 6.2
2014-Dec-13 20:33N 48°40' W 123°21'1211.7
2014-Dec-13 19:33N 48°29' W 123°15'7 7.2
2014-Dec-13 18:34N 48°24' W 123°23'3 0.1
2014-Dec-12 19:29N 48°26' W 123°26'  

Dump ship's entire track history